createdAt,value
2023-02-28T00:00:32.211Z,97536.09
2023-02-28T00:02:59.335Z,97539.31
2023-02-28T00:05:27.209Z,97537.25
2023-02-28T00:07:54.014Z,97533.47
2023-02-28T00:10:24.478Z,97539.44
2023-02-28T00:12:52.124Z,97539.16
2023-02-28T00:15:18.955Z,97542.59
2023-02-28T00:17:45.833Z,97537.44
2023-02-28T00:20:13.925Z,97535.38
2023-02-28T00:22:42.902Z,97542.38
2023-02-28T00:25:10.796Z,97533.38
2023-02-28T00:27:38.657Z,97538.72
2023-02-28T00:30:06.749Z,97533.00
2023-02-28T00:32:33.544Z,97536.22
2023-02-28T00:35:02.018Z,97532.81
2023-02-28T00:37:28.809Z,97535.56
2023-02-28T00:39:55.621Z,97539.94
2023-02-28T00:42:22.892Z,97538.66
2023-02-28T00:44:49.663Z,97537.41
2023-02-28T00:47:16.986Z,97538.38
2023-02-28T00:49:44.132Z,97535.38
2023-02-28T00:52:10.945Z,97534.63
2023-02-28T00:54:37.640Z,97535.88
2023-02-28T00:57:04.435Z,97532.66
2023-02-28T00:59:32.195Z,97541.72
2023-02-28T01:01:58.942Z,97532.66
2023-02-28T01:04:25.886Z,97531.94
2023-02-28T01:06:53.066Z,97539.63
2023-02-28T01:09:19.945Z,97540.13
2023-02-28T01:11:46.763Z,97534.91
2023-02-28T01:14:15.821Z,97536.63
2023-02-28T01:16:42.794Z,97544.00
2023-02-28T01:19:09.559Z,97546.03
2023-02-28T01:21:36.697Z,97532.84
2023-02-28T01:24:05.269Z,97544.69
2023-02-28T01:26:32.652Z,97540.81
2023-02-28T01:28:59.745Z,97530.41
2023-02-28T01:31:27.131Z,97538.53
2023-02-28T01:33:54.104Z,97538.00
2023-02-28T01:36:23.247Z,97543.34
2023-02-28T01:38:50.340Z,97538.47
2023-02-28T01:41:26.290Z,97536.91
2023-02-28T01:44:29.488Z,97529.19
2023-02-28T01:46:57.313Z,97533.66
2023-02-28T01:49:24.029Z,97534.44
2023-02-28T01:51:56.010Z,97529.09
2023-02-28T01:54:27.209Z,97525.72
2023-02-28T01:57:00.421Z,97520.59
2023-02-28T01:59:35.433Z,97529.38
2023-02-28T02:02:03.531Z,97527.22
2023-02-28T02:04:38.493Z,97527.00
2023-02-28T02:07:05.444Z,97527.28
2023-02-28T02:09:32.173Z,97519.47
2023-02-28T02:12:00.546Z,97518.78
2023-02-28T02:14:51.851Z,97515.38
2023-02-28T02:17:32.278Z,97522.94
2023-02-28T02:20:14.302Z,97516.56
2023-02-28T02:23:00.051Z,97523.16
2023-02-28T02:25:30.761Z,97519.53
2023-02-28T02:28:23.194Z,97518.31
2023-02-28T02:31:08.174Z,97515.13
2023-02-28T02:34:02.728Z,97517.84
2023-02-28T02:36:31.878Z,97513.69
2023-02-28T02:39:05.581Z,97514.19
2023-02-28T02:41:39.420Z,97521.25
2023-02-28T02:44:13.243Z,97515.41
2023-02-28T02:46:43.807Z,97509.56
2023-02-28T02:49:15.832Z,97512.47
2023-02-28T02:51:43.710Z,97514.66
2023-02-28T02:54:18.272Z,97516.88
2023-02-28T02:56:47.739Z,97511.00
2023-02-28T02:59:22.099Z,97514.63
2023-02-28T03:01:54.618Z,97510.25
2023-02-28T03:04:23.345Z,97504.88
2023-02-28T03:06:55.811Z,97503.66
2023-02-28T03:09:26.539Z,97507.81
2023-02-28T03:11:55.867Z,97504.66
2023-02-28T03:14:31.947Z,97508.78
2023-02-28T03:17:26.349Z,97500.22
2023-02-28T03:20:19.822Z,97510.47
2023-02-28T03:22:50.591Z,97511.19
2023-02-28T03:25:29.470Z,97501.47
2023-02-28T03:28:27.041Z,97499.50
2023-02-28T03:31:01.845Z,97510.25
2023-02-28T03:33:32.094Z,97509.00
2023-02-28T03:36:03.283Z,97508.53
2023-02-28T03:38:39.032Z,97503.88
2023-02-28T03:41:16.341Z,97507.06
2023-02-28T03:43:47.637Z,97509.78
2023-02-28T03:46:16.574Z,97499.06
2023-02-28T03:48:52.477Z,97502.91
2023-02-28T03:51:20.885Z,97497.34
2023-02-28T03:53:56.289Z,97503.22
2023-02-28T03:56:32.811Z,97496.84
2023-02-28T03:59:15.670Z,97496.38
2023-02-28T04:01:47.637Z,97505.19
2023-02-28T04:04:15.386Z,97505.16
2023-02-28T04:06:42.620Z,97500.78
2023-02-28T04:11:42.012Z,97500.44
2023-02-28T04:14:09.876Z,97504.84
2023-02-28T04:16:38.371Z,97515.84
2023-02-28T04:19:06.785Z,97501.69
2023-02-28T04:21:41.874Z,97510.25
2023-02-28T04:24:14.970Z,97502.97
2023-02-28T04:26:47.041Z,97504.22
2023-02-28T04:29:16.151Z,97498.09
2023-02-28T04:31:42.852Z,97499.31
2023-02-28T04:34:09.601Z,97503.00
2023-02-28T04:36:36.404Z,97498.59
2023-02-28T04:39:03.253Z,97507.41
2023-02-28T04:41:32.391Z,97503.25
2023-02-28T04:43:59.742Z,97507.38
2023-02-28T04:46:26.445Z,97511.28
2023-02-28T04:48:53.111Z,97496.41
2023-02-28T04:51:20.786Z,97498.34
2023-02-28T04:53:48.841Z,97504.91
2023-02-28T04:56:17.639Z,97505.88
2023-02-28T04:58:44.905Z,97507.34
2023-02-28T05:01:21.230Z,97505.84
2023-02-28T05:03:48.900Z,97507.31
2023-02-28T05:06:16.459Z,97509.50
2023-02-28T05:08:43.176Z,97513.44
2023-02-28T05:11:23.401Z,97508.31
2023-02-28T05:13:50.912Z,97510.75
2023-02-28T05:16:18.220Z,97508.34
2023-02-28T05:18:45.436Z,97511.75
2023-02-28T05:21:32.292Z,97515.16
2023-02-28T05:24:01.382Z,97515.91
2023-02-28T05:26:29.011Z,97510.28
2023-02-28T05:28:55.723Z,97514.19
2023-02-28T05:31:23.143Z,97510.75
2023-02-28T05:33:49.860Z,97510.28
2023-02-28T05:36:16.671Z,97514.88
2023-02-28T05:38:43.415Z,97516.34
2023-02-28T05:41:12.024Z,97510.97
2023-02-28T05:43:39.238Z,97514.38
2023-02-28T05:46:07.198Z,97519.53
2023-02-28T05:48:35.330Z,97511.19
2023-02-28T05:51:03.539Z,97520.00
2023-02-28T05:53:31.162Z,97518.03
2023-02-28T05:55:58.327Z,97528.50
2023-02-28T05:58:30.144Z,97522.16
2023-02-28T06:01:00.129Z,97530.72
2023-02-28T06:03:27.637Z,97525.31
2023-02-28T06:05:54.641Z,97528.22
2023-02-28T06:08:21.817Z,97530.72
2023-02-28T06:10:48.604Z,97532.16
2023-02-28T06:13:15.344Z,97526.03
2023-02-28T06:15:42.529Z,97524.28
2023-02-28T06:18:09.445Z,97525.00
2023-02-28T06:20:37.293Z,97540.91
2023-02-28T06:23:04.299Z,97543.59
2023-02-28T06:25:31.136Z,97548.53
2023-02-28T06:27:58.125Z,97543.88
2023-02-28T06:30:28.097Z,97553.16
2023-02-28T06:32:55.531Z,97553.66
2023-02-28T06:35:22.907Z,97552.66
2023-02-28T06:37:49.687Z,97558.50
2023-02-28T06:40:16.540Z,97561.91
2023-02-28T06:42:43.415Z,97565.25
2023-02-28T06:45:14.867Z,97559.75
2023-02-28T06:47:42.477Z,97559.28
2023-02-28T06:50:12.196Z,97562.25
2023-02-28T06:52:39.346Z,97566.97
2023-02-28T06:55:07.346Z,97564.50
2023-02-28T06:57:35.669Z,97573.31
2023-02-28T07:00:10.687Z,97565.72
2023-02-28T07:02:38.626Z,97565.97
2023-02-28T07:05:08.138Z,97565.50
2023-02-28T07:07:37.011Z,97568.66
2023-02-28T07:10:12.414Z,97565.75
2023-02-28T07:12:39.157Z,97565.03
2023-02-28T07:15:06.862Z,97573.06
2023-02-28T07:17:33.588Z,97573.06
2023-02-28T07:20:00.277Z,97575.75
2023-02-28T07:22:26.977Z,97577.19
2023-02-28T07:24:53.721Z,97582.81
2023-02-28T07:27:24.836Z,97575.22
2023-02-28T07:29:51.636Z,97588.38
2023-02-28T07:32:19.494Z,97583.03
2023-02-28T07:34:46.561Z,97576.00
2023-02-28T07:37:13.484Z,97583.53
2023-02-28T07:39:40.231Z,97589.66
2023-02-28T07:42:08.369Z,97586.25
2023-02-28T07:44:35.172Z,97581.06
2023-02-28T07:47:01.923Z,97579.56
2023-02-28T07:49:28.770Z,97580.78
2023-02-28T07:51:55.536Z,97582.50
2023-02-28T07:54:22.199Z,97576.09
2023-02-28T07:56:48.981Z,97584.09
2023-02-28T07:59:15.836Z,97577.94
2023-02-28T08:01:42.980Z,97576.97
2023-02-28T08:04:09.707Z,97572.75
2023-02-28T08:06:36.426Z,97579.31
2023-02-28T08:09:03.455Z,97584.13
2023-02-28T08:11:30.609Z,97577.69
2023-02-28T08:13:57.605Z,97580.03
2023-02-28T08:16:24.555Z,97582.50
2023-02-28T08:18:52.936Z,97594.38
2023-02-28T08:21:20.379Z,97584.19
2023-02-28T08:23:51.529Z,97590.19
2023-02-28T08:26:18.715Z,97593.72
2023-02-28T08:28:45.727Z,97588.25
2023-02-28T08:31:15.494Z,97584.66
2023-02-28T08:33:43.109Z,97588.03
2023-02-28T08:36:10.268Z,97585.06
2023-02-28T08:38:37.540Z,97587.25
2023-02-28T08:41:08.233Z,97584.91
2023-02-28T08:43:35.696Z,97586.84
2023-02-28T08:46:02.848Z,97594.81
2023-02-28T08:48:31.268Z,97597.19
2023-02-28T08:51:07.743Z,97605.06
2023-02-28T08:53:36.085Z,97602.25
2023-02-28T08:56:05.814Z,97602.97
2023-02-28T08:58:33.498Z,97600.50
2023-02-28T09:01:00.345Z,97611.84
2023-02-28T09:03:28.119Z,97605.84
2023-02-28T09:06:02.837Z,97612.63
2023-02-28T09:08:31.511Z,97610.13
2023-02-28T09:11:00.674Z,97604.59
2023-02-28T09:13:28.507Z,97610.88
2023-02-28T09:15:55.606Z,97605.88
2023-02-28T09:18:22.462Z,97598.28
2023-02-28T09:20:49.304Z,97609.03
2023-02-28T09:23:16.048Z,97611.09
2023-02-28T09:25:48.063Z,97614.47
2023-02-28T09:28:18.341Z,97611.94
2023-02-28T09:30:46.799Z,97612.63
2023-02-28T09:33:14.437Z,97620.53
2023-02-28T09:35:41.249Z,97615.69
2023-02-28T09:38:08.549Z,97613.81
2023-02-28T09:40:42.723Z,97617.72
2023-02-28T09:43:14.153Z,97619.69
2023-02-28T09:45:42.611Z,97618.53
2023-02-28T09:48:17.030Z,97626.47
2023-02-28T09:50:53.792Z,97621.25
2023-02-28T09:53:28.291Z,97625.34
2023-02-28T09:56:18.439Z,97628.41
2023-02-28T09:58:55.624Z,97638.09
2023-02-28T10:01:33.904Z,97626.19
2023-02-28T10:04:11.947Z,97639.78
2023-02-28T10:06:50.993Z,97640.56
2023-02-28T10:09:27.051Z,97641.25
2023-02-28T10:11:57.182Z,97647.88
2023-02-28T10:14:28.010Z,97643.22
2023-02-28T10:16:58.131Z,97630.56
2023-02-28T10:19:41.237Z,97639.81
2023-02-28T10:22:37.052Z,97647.69
2023-02-28T10:25:17.893Z,97644.94
2023-02-28T10:27:45.134Z,97636.28
2023-02-28T10:30:12.888Z,97641.22
2023-02-28T10:32:40.058Z,97642.81
2023-02-28T10:35:24.561Z,97637.22
2023-02-28T10:37:56.737Z,97648.03
2023-02-28T10:40:24.567Z,97647.06
2023-02-28T10:42:57.455Z,97647.25
2023-02-28T10:45:24.998Z,97638.94
2023-02-28T10:47:56.443Z,97646.03
2023-02-28T10:50:45.904Z,97639.91
2023-02-28T10:53:27.820Z,97638.66
2023-02-28T10:55:59.751Z,97639.22
2023-02-28T10:58:29.478Z,97644.53
2023-02-28T11:00:56.263Z,97643.91
2023-02-28T11:03:36.042Z,97645.28
2023-02-28T11:06:09.198Z,97643.13
2023-02-28T11:08:36.081Z,97654.00
2023-02-28T11:11:06.773Z,97644.94
2023-02-28T11:13:36.439Z,97640.50
2023-02-28T11:16:06.021Z,97644.41
2023-02-28T11:18:38.949Z,97654.88
2023-02-28T11:21:06.229Z,97654.94
2023-02-28T11:23:38.026Z,97651.13
2023-02-28T11:26:05.989Z,97642.94
2023-02-28T11:28:36.051Z,97651.28
2023-02-28T11:31:02.958Z,97652.31
2023-02-28T11:33:32.085Z,97652.81
2023-02-28T11:36:05.022Z,97659.63
2023-02-28T11:38:35.283Z,97661.31
2023-02-28T11:41:28.765Z,97652.94
2023-02-28T11:44:14.926Z,97652.66
2023-02-28T11:46:46.641Z,97646.03
2023-02-28T11:49:48.846Z,97648.00
2023-02-28T11:52:40.424Z,97647.53
2023-02-28T11:55:33.962Z,97648.06
2023-02-28T11:58:37.374Z,97650.22
2023-02-28T12:01:19.702Z,97643.16
2023-02-28T12:04:09.854Z,97646.63
2023-02-28T12:06:45.740Z,97646.75
2023-02-28T12:09:33.862Z,97648.66
2023-02-28T12:12:04.152Z,97641.72
2023-02-28T12:15:02.164Z,97638.00
2023-02-28T12:17:47.110Z,97648.38
2023-02-28T12:20:35.863Z,97640.22
2023-02-28T12:23:30.669Z,97642.03
2023-02-28T12:26:01.758Z,97639.84
2023-02-28T12:28:33.180Z,97626.53
2023-02-28T12:31:09.838Z,97636.69
2023-02-28T12:33:41.937Z,97636.00
2023-02-28T12:36:18.511Z,97628.31
2023-02-28T12:38:49.381Z,97635.09
2023-02-28T12:41:16.002Z,97636.03
2023-02-28T12:43:54.676Z,97631.50
2023-02-28T12:46:26.580Z,97631.81
2023-02-28T12:49:14.395Z,97628.06
